createdAt,value
2022-10-09T00:01:31.166Z,58.33
2022-10-09T00:04:00.078Z,60.33
2022-10-09T00:06:33.960Z,61.33
2022-10-09T00:09:02.802Z,57.85
2022-10-09T00:11:32.510Z,56.28
2022-10-09T00:14:00.847Z,60.88
2022-10-09T00:16:29.348Z,61.70
2022-10-09T00:18:57.509Z,57.00
2022-10-09T00:21:34.536Z,57.83
2022-10-09T00:24:04.388Z,59.33
2022-10-09T00:26:33.885Z,61.67
2022-10-09T00:29:01.240Z,58.08
2022-10-09T00:31:29.253Z,56.85
2022-10-09T00:33:57.003Z,48.63
2022-10-09T00:36:27.509Z,48.58
2022-10-09T00:38:56.227Z,48.70
2022-10-09T00:41:30.789Z,44.13
2022-10-09T00:44:20.728Z,45.10
2022-10-09T00:46:52.729Z,48.92
2022-10-09T00:49:32.912Z,47.38
2022-10-09T00:52:07.463Z,45.03
2022-10-09T00:54:40.957Z,49.97
2022-10-09T00:57:09.589Z,52.22
2022-10-09T00:59:38.882Z,49.50
2022-10-09T01:02:07.504Z,47.55
2022-10-09T01:04:35.026Z,47.22
2022-10-09T01:07:05.119Z,40.45
2022-10-09T01:09:50.475Z,36.15
2022-10-09T01:12:37.138Z,29.65
2022-10-09T01:15:36.440Z,32.33
2022-10-09T01:18:17.671Z,33.17
2022-10-09T01:21:16.777Z,33.95
2022-10-09T01:23:53.190Z,35.65
2022-10-09T01:26:46.470Z,34.95
2022-10-09T01:29:16.386Z,36.33
2022-10-09T01:31:49.623Z,40.60
2022-10-09T01:34:20.213Z,42.87
2022-10-09T01:36:48.746Z,45.85
2022-10-09T01:39:21.487Z,41.33
2022-10-09T01:41:51.144Z,46.28
2022-10-09T01:44:27.275Z,42.28
2022-10-09T01:46:55.278Z,46.38
2022-10-09T01:49:40.136Z,46.63
2022-10-09T01:52:33.004Z,43.50
2022-10-09T01:55:54.799Z,45.33
2022-10-09T01:58:21.997Z,47.75
2022-10-09T02:01:02.228Z,43.55
2022-10-09T02:03:32.250Z,41.75
2022-10-09T02:06:02.083Z,45.15
2022-10-09T02:08:33.547Z,45.83
2022-10-09T02:11:05.715Z,46.22
2022-10-09T02:13:35.590Z,42.28
2022-10-09T02:16:11.655Z,45.28
2022-10-09T02:18:45.613Z,47.80
2022-10-09T02:21:26.368Z,44.53
2022-10-09T02:24:00.657Z,40.75
2022-10-09T02:26:27.992Z,40.10
2022-10-09T02:28:55.425Z,33.10
2022-10-09T02:31:28.436Z,35.50
2022-10-09T02:34:01.579Z,34.17
2022-10-09T02:36:31.089Z,28.45
2022-10-09T02:38:59.099Z,30.70
2022-10-09T02:41:27.123Z,32.25
2022-10-09T02:43:54.890Z,33.25
2022-10-09T02:46:23.191Z,29.02
2022-10-09T02:48:52.007Z,30.20
2022-10-09T02:51:19.726Z,30.38
2022-10-09T02:53:47.460Z,23.90
2022-10-09T02:56:14.797Z,22.98
2022-10-09T02:58:42.093Z,21.47
2022-10-09T03:01:10.540Z,21.52
2022-10-09T03:03:37.845Z,20.90
2022-10-09T03:06:37.800Z,22.95
2022-10-09T03:09:06.312Z,22.70
2022-10-09T03:11:33.844Z,24.20
2022-10-09T03:14:01.093Z,26.95
2022-10-09T03:16:28.592Z,18.42
2022-10-09T03:18:58.948Z,20.37
2022-10-09T03:21:28.799Z,19.05
2022-10-09T03:23:57.641Z,17.00
2022-10-09T03:26:27.811Z,14.85
2022-10-09T03:28:56.601Z,15.30
2022-10-09T03:34:15.060Z,12.60
2022-10-09T03:36:42.427Z,14.40
2022-10-09T03:39:10.270Z,10.32
2022-10-09T03:41:37.489Z,9.55
2022-10-09T03:44:05.002Z,10.63
2022-10-09T03:46:32.341Z,10.32
2022-10-09T03:48:59.641Z,9.82
2022-10-09T03:51:27.579Z,9.35
2022-10-09T03:53:54.916Z,12.13
2022-10-09T03:56:22.415Z,8.90
2022-10-09T03:58:49.797Z,7.75
2022-10-09T04:01:17.209Z,8.15
2022-10-09T04:03:44.477Z,11.15
2022-10-09T04:06:12.018Z,7.88
2022-10-09T04:08:39.335Z,9.43
2022-10-09T04:11:06.765Z,7.10
2022-10-09T04:13:34.031Z,9.90
2022-10-09T04:16:01.316Z,8.43
2022-10-09T04:18:28.621Z,7.13
2022-10-09T04:20:57.258Z,6.47
2022-10-09T04:23:27.961Z,6.80
2022-10-09T04:26:01.055Z,7.97
2022-10-09T04:28:32.029Z,5.25
2022-10-09T04:30:59.952Z,6.23
2022-10-09T04:33:28.376Z,7.65
2022-10-09T04:35:57.209Z,5.82
2022-10-09T04:38:25.602Z,5.00
2022-10-09T04:41:07.201Z,5.28
2022-10-09T04:43:35.383Z,5.82
2022-10-09T04:46:08.704Z,8.70
2022-10-09T04:48:41.711Z,6.57
2022-10-09T04:51:10.300Z,5.45
2022-10-09T04:53:39.656Z,4.95
2022-10-09T04:56:11.421Z,4.50
2022-10-09T04:58:40.819Z,6.93
2022-10-09T05:01:18.671Z,7.82
2022-10-09T05:03:45.967Z,7.82
2022-10-09T05:06:15.217Z,5.10
2022-10-09T05:08:42.769Z,8.17
2022-10-09T05:11:17.778Z,6.73
2022-10-09T05:13:51.932Z,8.20
2022-10-09T05:16:24.630Z,6.25
2022-10-09T05:18:55.651Z,7.43
2022-10-09T05:21:24.597Z,6.65
2022-10-09T05:23:55.041Z,5.75
2022-10-09T05:26:25.641Z,7.70
2022-10-09T05:28:54.327Z,9.30
2022-10-09T05:31:26.555Z,7.00
2022-10-09T05:33:56.084Z,6.32
2022-10-09T05:36:23.297Z,6.72
2022-10-09T05:38:50.695Z,8.15
2022-10-09T05:41:19.911Z,6.88
2022-10-09T05:43:49.505Z,6.43
2022-10-09T05:46:26.073Z,5.00
2022-10-09T05:49:00.333Z,5.57
2022-10-09T05:51:31.031Z,7.88
2022-10-09T05:53:59.594Z,7.33
2022-10-09T05:56:33.729Z,7.57
2022-10-09T05:59:04.189Z,6.50
2022-10-09T06:01:39.090Z,6.80
2022-10-09T06:04:11.047Z,5.78
2022-10-09T06:07:19.737Z,6.78
2022-10-09T06:09:48.992Z,8.68
2022-10-09T06:12:16.316Z,6.53
2022-10-09T06:14:43.594Z,6.60
2022-10-09T06:17:10.930Z,4.85
2022-10-09T06:19:38.580Z,6.75
2022-10-09T06:22:05.862Z,7.93
2022-10-09T06:24:33.126Z,8.10
2022-10-09T06:27:00.410Z,5.63
2022-10-09T06:29:30.273Z,7.87
2022-10-09T06:31:57.727Z,7.47
2022-10-09T06:34:25.391Z,8.38
2022-10-09T06:36:52.788Z,6.20
2022-10-09T06:39:20.187Z,6.18
2022-10-09T06:41:47.392Z,8.43
2022-10-09T06:44:17.225Z,7.22
2022-10-09T06:46:49.517Z,7.00
2022-10-09T06:49:16.857Z,5.57
2022-10-09T06:51:44.081Z,7.82
2022-10-09T06:54:16.322Z,6.65
2022-10-09T06:56:45.447Z,6.55
2022-10-09T06:59:13.304Z,7.13
2022-10-09T07:01:40.810Z,7.43
2022-10-09T07:04:13.386Z,8.60
2022-10-09T07:06:44.776Z,7.72
2022-10-09T07:09:14.761Z,6.95
2022-10-09T07:11:49.110Z,8.75
2022-10-09T07:14:16.993Z,9.60
2022-10-09T07:16:47.482Z,6.80
2022-10-09T07:19:17.636Z,8.77
2022-10-09T07:21:48.355Z,8.48
2022-10-09T07:24:17.319Z,6.40
2022-10-09T07:26:47.165Z,4.85
2022-10-09T07:29:17.469Z,8.63
2022-10-09T07:31:45.675Z,7.15
2022-10-09T07:34:13.020Z,5.65
2022-10-09T07:36:40.396Z,6.07
2022-10-09T07:39:07.696Z,7.25
2022-10-09T07:41:35.458Z,6.50
2022-10-09T07:44:03.066Z,8.70
2022-10-09T07:46:33.806Z,7.22
2022-10-09T07:49:03.177Z,7.75
2022-10-09T07:51:31.723Z,6.65
2022-10-09T07:54:02.054Z,8.23
2022-10-09T07:56:37.924Z,7.70
2022-10-09T07:59:11.516Z,7.80
2022-10-09T08:01:40.015Z,6.70
2022-10-09T08:04:07.756Z,8.13
2022-10-09T08:06:35.933Z,7.45
2022-10-09T08:09:06.512Z,7.43
2022-10-09T08:11:34.624Z,7.80
2022-10-09T08:14:01.982Z,8.77
2022-10-09T08:16:31.581Z,12.95
2022-10-09T08:19:01.111Z,7.03
2022-10-09T08:21:29.505Z,8.18
2022-10-09T08:23:59.274Z,6.80
2022-10-09T08:26:29.799Z,8.77
2022-10-09T08:29:02.943Z,7.47
2022-10-09T08:31:32.138Z,6.47
2022-10-09T08:34:02.927Z,6.18
2022-10-09T08:36:33.474Z,5.78
2022-10-09T08:39:01.141Z,7.70
2022-10-09T08:41:47.550Z,6.30
2022-10-09T08:44:23.271Z,3.85
2022-10-09T08:47:17.239Z,3.67
2022-10-09T08:50:10.335Z,7.10
2022-10-09T08:52:56.977Z,3.33
2022-10-09T08:55:49.350Z,3.88
2022-10-09T08:58:20.643Z,4.93
2022-10-09T09:01:05.087Z,3.42
2022-10-09T09:04:26.697Z,4.30
2022-10-09T09:07:09.707Z,4.93
2022-10-09T09:10:02.902Z,4.55
2022-10-09T09:13:37.911Z,6.35
2022-10-09T09:16:35.912Z,5.43
2022-10-09T09:19:11.362Z,5.88
2022-10-09T09:21:59.406Z,4.97
2022-10-09T09:24:57.280Z,7.85
2022-10-09T09:27:44.135Z,4.88
2022-10-09T09:30:35.823Z,5.45
2022-10-09T09:33:44.292Z,5.22
2022-10-09T09:36:39.464Z,4.50
2022-10-09T09:40:00.967Z,4.03
2022-10-09T09:42:15.731Z,4.35
2022-10-09T09:44:55.154Z,4.43
2022-10-09T09:47:43.375Z,4.10
2022-10-09T09:50:28.502Z,5.60
2022-10-09T09:53:06.939Z,2.78
2022-10-09T09:55:35.203Z,4.57
2022-10-09T09:58:08.774Z,3.25
2022-10-09T10:00:36.569Z,4.00
2022-10-09T10:03:18.369Z,6.50
2022-10-09T10:05:46.112Z,3.95
2022-10-09T10:08:33.436Z,5.38
2022-10-09T10:11:09.790Z,5.40
2022-10-09T10:13:49.756Z,5.38
2022-10-09T10:16:29.578Z,7.25
2022-10-09T10:18:58.646Z,3.05
2022-10-09T10:21:26.065Z,3.90
2022-10-09T10:24:05.325Z,4.25
2022-10-09T10:26:51.813Z,4.50
2022-10-09T10:29:45.259Z,2.90
2022-10-09T10:32:58.893Z,3.80
2022-10-09T10:35:38.702Z,5.38
2022-10-09T10:38:13.428Z,5.72
2022-10-09T10:41:18.312Z,3.17
2022-10-09T10:43:53.626Z,3.35
2022-10-09T10:46:52.601Z,4.35
2022-10-09T10:49:22.632Z,4.38
2022-10-09T10:51:58.641Z,2.50
2022-10-09T10:54:39.800Z,4.93
2022-10-09T10:57:49.432Z,7.55
2022-10-09T11:00:17.553Z,1.77
2022-10-09T11:03:34.359Z,2.67
2022-10-09T11:06:26.554Z,2.63
2022-10-09T11:09:32.326Z,4.50
2022-10-09T11:12:15.583Z,4.00
2022-10-09T11:15:37.515Z,5.10
2022-10-09T11:18:08.131Z,2.08
2022-10-09T11:21:12.177Z,2.88
2022-10-09T11:24:27.016Z,3.55
2022-10-09T11:27:44.088Z,3.30
2022-10-09T11:30:16.028Z,4.00
2022-10-09T11:33:36.154Z,2.72
2022-10-09T11:36:33.146Z,4.07
2022-10-09T11:39:11.100Z,2.78
2022-10-09T11:41:39.286Z,2.43
2022-10-09T11:44:36.424Z,3.83
2022-10-09T11:47:15.465Z,4.90
2022-10-09T11:50:03.678Z,2.67
2022-10-09T11:52:59.892Z,1.73
2022-10-09T11:55:31.369Z,2.47
2022-10-09T11:58:26.580Z,2.78
2022-10-09T12:00:57.833Z,3.08
2022-10-09T12:03:35.313Z,3.97
2022-10-09T12:06:17.818Z,3.90
2022-10-09T12:09:00.158Z,2.40
2022-10-09T12:11:28.602Z,4.15
2022-10-09T12:14:06.886Z,2.03
2022-10-09T12:16:42.767Z,2.38
2022-10-09T12:19:35.824Z,4.22
2022-10-09T12:22:23.451Z,5.72
2022-10-09T12:24:55.979Z,5.20
2022-10-09T12:27:39.294Z,5.03
2022-10-09T12:30:30.941Z,3.15
2022-10-09T12:33:43.384Z,2.22
2022-10-09T12:36:16.273Z,2.20
2022-10-09T12:38:43.931Z,2.78
2022-10-09T12:41:24.447Z,2.03
2022-10-09T12:43:56.560Z,3.17
2022-10-09T12:46:36.127Z,3.17
2022-10-09T12:49:17.546Z,4.80
2022-10-09T12:51:56.118Z,2.65
2022-10-09T12:54:25.710Z,2.88
2022-10-09T12:56:57.132Z,2.03
2022-10-09T12:59:28.171Z,2.30
2022-10-09T13:02:00.146Z,2.78
2022-10-09T13:04:34.162Z,2.65
2022-10-09T13:07:16.805Z,3.20
2022-10-09T13:09:44.269Z,3.15
2022-10-09T13:12:28.824Z,3.22
2022-10-09T13:15:37.024Z,2.80
2022-10-09T13:18:23.344Z,2.95
2022-10-09T13:21:30.194Z,2.15
2022-10-09T13:24:13.381Z,2.60
2022-10-09T13:26:44.083Z,2.78
2022-10-09T13:29:14.093Z,3.17
2022-10-09T13:31:44.544Z,2.22
2022-10-09T13:34:14.106Z,3.27
2022-10-09T13:36:41.851Z,2.30
2022-10-09T13:39:16.184Z,1.85
2022-10-09T13:41:55.870Z,3.47
2022-10-09T13:44:24.855Z,6.00
2022-10-09T13:46:52.287Z,1.63
2022-10-09T13:49:19.912Z,2.05
2022-10-09T13:51:47.097Z,2.50
2022-10-09T13:54:14.480Z,2.28
2022-10-09T13:56:41.955Z,2.63
2022-10-09T13:59:09.251Z,1.48
2022-10-09T14:01:37.052Z,0.88
2022-10-09T14:04:04.682Z,1.83
2022-10-09T14:06:36.088Z,2.07
2022-10-09T14:09:05.479Z,3.10
2022-10-09T14:11:34.086Z,1.92
2022-10-09T14:14:02.026Z,2.15
2022-10-09T14:16:30.911Z,0.60
2022-10-09T14:19:02.078Z,2.40
2022-10-09T14:21:30.440Z,1.13
2022-10-09T14:24:01.310Z,1.45
2022-10-09T14:26:30.196Z,1.83
2022-10-09T14:29:01.788Z,2.42
2022-10-09T14:31:30.454Z,3.15
2022-10-09T14:33:59.926Z,3.40
2022-10-09T14:36:27.848Z,2.55
2022-10-09T14:38:56.087Z,3.42
2022-10-09T14:41:24.866Z,2.70
2022-10-09T14:43:58.214Z,1.65
2022-10-09T14:46:28.279Z,4.03
2022-10-09T14:48:57.883Z,2.72
2022-10-09T14:51:28.560Z,1.63
2022-10-09T14:53:58.789Z,2.05
2022-10-09T14:56:27.582Z,0.95
2022-10-09T14:58:55.786Z,1.30
2022-10-09T15:01:23.902Z,2.95
2022-10-09T15:03:51.301Z,2.60
2022-10-09T15:06:25.356Z,1.80
2022-10-09T15:09:03.147Z,3.97
2022-10-09T15:11:34.515Z,2.72
2022-10-09T15:14:02.992Z,1.77
2022-10-09T15:16:33.853Z,2.67
2022-10-09T15:19:01.853Z,3.78
2022-10-09T15:21:35.703Z,3.08
2022-10-09T15:24:05.017Z,2.20
2022-10-09T15:26:35.720Z,2.05
2022-10-09T15:29:07.248Z,1.50
2022-10-09T15:31:37.745Z,3.63
2022-10-09T15:34:07.747Z,1.50
2022-10-09T15:36:40.040Z,4.03
2022-10-09T15:39:09.062Z,3.42
2022-10-09T15:41:42.098Z,1.63
2022-10-09T15:44:19.906Z,1.65
2022-10-09T15:46:49.694Z,2.83
2022-10-09T15:49:17.561Z,2.50
2022-10-09T15:51:45.167Z,2.30
2022-10-09T15:54:14.417Z,3.22
2022-10-09T15:56:42.373Z,3.55
2022-10-09T15:59:13.932Z,3.13
2022-10-09T16:01:43.557Z,4.82
2022-10-09T16:04:11.171Z,2.65
2022-10-09T16:06:38.922Z,5.68
2022-10-09T16:09:06.460Z,2.40
2022-10-09T16:11:34.724Z,4.40
2022-10-09T16:14:02.354Z,5.20
2022-10-09T16:16:41.172Z,6.00
2022-10-09T16:19:09.252Z,3.00
2022-10-09T16:21:37.826Z,5.20
2022-10-09T16:24:06.350Z,5.70
2022-10-09T16:29:01.114Z,3.22
2022-10-09T16:31:37.141Z,4.78
2022-10-09T16:34:06.492Z,6.35
2022-10-09T16:36:35.420Z,6.50
2022-10-09T16:39:02.791Z,6.60
2022-10-09T16:41:30.162Z,3.17
2022-10-09T16:44:00.444Z,4.20
2022-10-09T16:49:13.626Z,4.53
2022-10-09T16:51:42.043Z,6.40
2022-10-09T16:54:17.430Z,4.30
2022-10-09T16:56:44.950Z,6.57
2022-10-09T16:59:14.927Z,6.13
2022-10-09T17:01:46.577Z,3.63
2022-10-09T17:04:14.929Z,4.18
2022-10-09T17:06:46.657Z,3.92
2022-10-09T17:09:15.133Z,4.57
2022-10-09T17:11:44.085Z,7.20
2022-10-09T17:14:12.561Z,4.90
2022-10-09T17:16:42.947Z,6.38
2022-10-09T17:19:10.936Z,6.30
2022-10-09T17:21:38.360Z,8.57
2022-10-09T17:24:06.585Z,7.05
2022-10-09T17:26:35.071Z,5.00
2022-10-09T17:31:30.691Z,4.53
2022-10-09T17:34:02.043Z,9.25
2022-10-09T17:36:34.527Z,8.02
2022-10-09T17:39:04.143Z,6.10
2022-10-09T17:41:32.045Z,7.18
2022-10-09T17:44:00.099Z,8.18
2022-10-09T17:46:29.532Z,12.25
2022-10-09T17:49:02.145Z,6.28
2022-10-09T17:51:34.367Z,13.32
2022-10-09T17:54:09.550Z,9.48
2022-10-09T17:56:40.357Z,6.43
2022-10-09T17:59:10.081Z,6.82
2022-10-09T18:01:38.283Z,8.35
2022-10-09T18:04:05.977Z,9.43
2022-10-09T18:06:35.666Z,11.30
2022-10-09T18:09:04.835Z,7.88
2022-10-09T18:11:32.220Z,9.10
2022-10-09T18:13:59.631Z,6.57
2022-10-09T18:16:36.526Z,7.22
2022-10-09T18:19:18.602Z,5.93
2022-10-09T18:21:49.247Z,6.43
2022-10-09T18:24:17.387Z,8.80
2022-10-09T18:26:45.896Z,8.82
2022-10-09T18:31:40.603Z,6.10
2022-10-09T18:34:08.141Z,9.60
2022-10-09T18:36:36.203Z,5.80
2022-10-09T18:39:14.890Z,10.70
2022-10-09T18:41:43.094Z,8.63
2022-10-09T18:44:17.546Z,5.30
2022-10-09T18:46:55.805Z,5.22
2022-10-09T18:49:29.996Z,4.28
2022-10-09T18:51:59.842Z,4.82
2022-10-09T18:54:28.543Z,11.20
2022-10-09T18:56:56.773Z,5.43
2022-10-09T18:59:24.586Z,7.28
2022-10-09T19:01:51.831Z,5.28
2022-10-09T19:04:19.344Z,4.78
2022-10-09T19:06:46.792Z,9.57
2022-10-09T19:09:15.744Z,6.15
2022-10-09T19:11:43.179Z,5.57
2022-10-09T19:14:10.486Z,5.63
2022-10-09T19:16:37.842Z,9.30
2022-10-09T19:19:06.202Z,7.65
2022-10-09T19:21:33.772Z,12.75
2022-10-09T19:24:04.549Z,5.30
2022-10-09T19:26:33.181Z,6.57
2022-10-09T19:29:00.688Z,7.65
2022-10-09T19:31:28.039Z,5.03
2022-10-09T19:33:55.521Z,8.23
2022-10-09T19:36:22.906Z,6.88
2022-10-09T19:38:50.634Z,6.93
2022-10-09T19:41:18.172Z,8.93
2022-10-09T19:43:45.568Z,2.97
2022-10-09T19:46:20.773Z,5.13
2022-10-09T19:48:48.800Z,9.13
2022-10-09T19:51:27.357Z,7.90
2022-10-09T19:53:55.004Z,6.75
2022-10-09T19:56:30.635Z,3.97
2022-10-09T19:59:02.479Z,2.35
2022-10-09T20:01:33.229Z,9.20
2022-10-09T20:04:05.522Z,5.00
2022-10-09T20:06:33.608Z,4.65
2022-10-09T20:09:01.134Z,3.63
2022-10-09T20:11:28.796Z,7.60
2022-10-09T20:13:56.724Z,5.07
2022-10-09T20:16:25.666Z,6.88
2022-10-09T20:18:55.870Z,4.50
2022-10-09T20:21:23.143Z,3.83
2022-10-09T20:23:52.063Z,5.50
2022-10-09T20:26:22.160Z,6.03
2022-10-09T20:28:55.728Z,5.05
2022-10-09T20:31:26.000Z,4.10
2022-10-09T20:33:55.790Z,3.80
2022-10-09T20:36:37.876Z,5.80
2022-10-09T20:39:12.546Z,4.15
2022-10-09T20:41:42.062Z,8.02
2022-10-09T20:44:11.177Z,6.95
2022-10-09T20:46:40.650Z,3.88
2022-10-09T20:49:13.354Z,3.65
2022-10-09T20:51:41.715Z,5.50
2022-10-09T20:54:16.335Z,4.95
2022-10-09T20:56:47.292Z,4.75
2022-10-09T20:59:15.810Z,7.45
2022-10-09T21:01:44.234Z,7.20
2022-10-09T21:04:12.295Z,2.55
2022-10-09T21:06:39.720Z,3.40
2022-10-09T21:09:08.929Z,2.92
2022-10-09T21:11:39.042Z,8.55
2022-10-09T21:14:07.706Z,6.60
2022-10-09T21:16:35.248Z,4.20
2022-10-09T21:19:05.934Z,6.35
2022-10-09T21:21:34.346Z,5.15
2022-10-09T21:24:03.668Z,6.75
2022-10-09T21:26:35.734Z,6.93
2022-10-09T21:29:05.439Z,3.83
2022-10-09T21:31:34.225Z,6.68
2022-10-09T21:34:02.697Z,4.68
2022-10-09T21:39:04.736Z,5.13
2022-10-09T21:41:33.067Z,6.90
2022-10-09T21:44:01.179Z,3.67
2022-10-09T21:46:29.474Z,8.15
2022-10-09T21:48:57.263Z,5.75
2022-10-09T21:51:25.049Z,7.95
2022-10-09T21:53:54.652Z,6.72
2022-10-09T21:56:23.092Z,6.93
2022-10-09T21:58:51.134Z,7.60
2022-10-09T22:01:18.451Z,4.63
2022-10-09T22:03:47.563Z,7.35
2022-10-09T22:06:19.234Z,4.93
2022-10-09T22:08:48.068Z,5.25
